Thunder radar more information blitzortung!


Radar de pluja more information rain snow radar


Visita la nostra xarxa de llocs de meteo:

Template documentation
and downloads

And another site



No particular awareness of the weather is required.    There are no Weather-warnings

Pagina Historial Weather Underground text

Diari Resum February 11, 2018 Unitats:  Imperial    Mètric   Tant
« Previous Dia
SegĂźent Dia »
Diari Setmana Mensual Anual Personalitzada
  Maxima: Minima: Media:
Temperatura: TemperatureC °F 0.4 °F 7.1 °F
Punt de rosada: DewpointC °F -14.2 °F -3.4 °F
Humitat: Humidity % 32 % 48 %
Wind Speed: WindSpeedKMH mph 0.0 mph 4.5 mph
RĂ fegues de vent: WindSpeedGustKMH mph - -
Vent:- - South
Pression baro: PressurehPa in 1011.7 in -
Precipitacions: 0.0 in    
Historical Graphs
 
 
Dades de taula per February 11, 2018
Temps Temperatura Punt de rosada Pression baro Vent Wind Speed RĂ fegues de vent Humitat Rainfall Rate (Hourly)
TemperatureC °F DewpointC °F PressurehPa in Calm     Humidity % HourlyPrecipMM in
00:02 1.6 °F -13.3 °F 1016.8 in Calm     32 % 0.0 in
00:07 1.6 °F -13.3 °F 1016.8 in WNW 1.9 mph   32 % 0.0 in
00:12 1.5 °F -13.4 °F 1016.8 in West 3.7 mph 3.7 mph 32 % 0.0 in
00:17 1.5 °F -13.4 °F 1016.8 in NE 4.2 mph 4.2 mph 32 % 0.0 in
00:22 1.4 °F -13.6 °F 1016.8 in NW 2.3 mph 2.3 mph 32 % 0.0 in
00:27 1.3 °F -13.6 °F 1016.8 in SW 4.2 mph 4.2 mph 32 % 0.0 in
00:32 1.4 °F -13.6 °F 1016.8 in West 3.7 mph 3.7 mph 32 % 0.0 in
00:37 1.1 °F -13.4 °F 1016.8 in SW 3.7 mph 3.7 mph 33 % 0.0 in
00:42 0.7 °F -14.2 °F 1016.8 in SW 5.6 mph 5.6 mph 32 % 0.0 in
00:47 0.6 °F -14.2 °F 1016.8 in SW 1.9 mph 1.9 mph 32 % 0.0 in
00:52 0.6 °F -13.8 °F 1016.8 in NE 3.7 mph 3.7 mph 33 % 0.0 in
00:57 0.6 °F -13.8 °F 1016.8 in Calm     33 % 0.0 in
01:02 0.7 °F -13.8 °F 1016.8 in Calm     33 % 0.0 in
01:07 0.8 °F -13.7 °F 1016.8 in Calm     33 % 0.0 in
01:12 0.9 °F -13.6 °F 1015.8 in NNW 3.2 mph 3.2 mph 33 % 0.0 in
01:17 1.0 °F -13.5 °F 1015.8 in Calm     33 % 0.0 in
01:22 1.0 °F -13.5 °F 1015.8 in Calm     33 % 0.0 in
01:27 1.1 °F -13.4 °F 1016.8 in NW 3.7 mph 3.7 mph 33 % 0.0 in
01:32 1.0 °F -13.5 °F 1016.8 in WSW 2.3 mph 2.6 mph 33 % 0.0 in
01:37 1.1 °F -13.4 °F 1016.8 in South 3.7 mph 3.7 mph 33 % 0.0 in
01:42 1.4 °F -13.2 °F 1016.8 in NE 1.9 mph   33 % 0.0 in
01:47 1.3 °F -13.2 °F 1016.8 in SW 3.7 mph 3.7 mph 33 % 0.0 in
01:52 0.9 °F -13.6 °F 1016.8 in SW 3.7 mph 3.7 mph 33 % 0.0 in
01:57 0.7 °F -13.8 °F 1015.8 in WSW 3.7 mph 3.7 mph 33 % 0.0 in
02:02 0.9 °F -13.6 °F 1015.8 in West 3.9 mph 3.9 mph 33 % 0.0 in
02:07 1.0 °F -13.5 °F 1015.8 in West 3.7 mph 3.7 mph 33 % 0.0 in
02:12 1.0 °F -13.5 °F 1015.8 in West 2.6 mph 2.6 mph 33 % 0.0 in
02:17 1.2 °F -13.3 °F 1015.8 in WSW 1.9 mph 1.9 mph 33 % 0.0 in
02:22 1.2 °F -13.3 °F 1015.8 in Calm     33 % 0.0 in
02:27 1.2 °F -13.3 °F 1015.8 in Calm     33 % 0.0 in
02:32 1.2 °F -13.3 °F 1015.8 in WSW 1.9 mph 1.9 mph 33 % 0.0 in
02:37 1.4 °F -13.2 °F 1015.8 in NW 3.7 mph 3.7 mph 33 % 0.0 in
02:42 1.6 °F -13.0 °F 1015.8 in North 3.7 mph 3.7 mph 33 % 0.0 in
02:47 1.6 °F -13.0 °F 1015.8 in NNE 1.9 mph 1.9 mph 33 % 0.0 in
02:52 1.6 °F -13.0 °F 1015.8 in West 3.7 mph 3.7 mph 33 % 0.0 in
02:57 1.4 °F -13.2 °F 1015.8 in Calm     33 % 0.0 in
03:02 1.4 °F -13.2 °F 1015.8 in NNW 3.7 mph 3.7 mph 33 % 0.0 in
03:07 1.2 °F -13.3 °F 1015.8 in West 3.9 mph 3.9 mph 33 % 0.0 in
03:12 1.0 °F -13.5 °F 1015.8 in West 3.7 mph 3.7 mph 33 % 0.0 in
03:17 1.2 °F -13.3 °F 1015.8 in SW 3.7 mph 3.7 mph 33 % 0.0 in
03:22 1.1 °F -13.4 °F 1015.8 in Calm     33 % 0.0 in
03:27 1.0 °F -13.5 °F 1014.8 in Calm     33 % 0.0 in
03:32 1.0 °F -13.5 °F 1014.8 in NNW 2.6 mph 2.6 mph 33 % 0.0 in
03:37 1.0 °F -13.5 °F 1014.8 in NNW 3.7 mph 3.7 mph 33 % 0.0 in
03:42 1.0 °F -13.5 °F 1014.8 in NNW 1.9 mph   33 % 0.0 in
03:47 0.9 °F -13.6 °F 1014.8 in ENE 2.6 mph   33 % 0.0 in
03:52 1.0 °F -13.5 °F 1014.8 in ENE 3.7 mph 3.7 mph 33 % 0.0 in
03:57 1.0 °F -13.5 °F 1015.8 in North 2.3 mph 2.3 mph 33 % 0.0 in
04:02 0.9 °F -13.6 °F 1015.8 in NE 3.7 mph 3.7 mph 33 % 0.0 in
04:07 0.9 °F -13.6 °F 1015.8 in NW 3.7 mph 3.7 mph 33 % 0.0 in
04:12 0.9 °F -13.6 °F 1015.8 in NE 3.7 mph 3.7 mph 33 % 0.0 in
04:17 0.9 °F -13.6 °F 1015.8 in NW 1.9 mph   33 % 0.0 in
04:22 0.8 °F -13.7 °F 1015.8 in North 1.9 mph   33 % 0.0 in
04:27 0.9 °F -13.6 °F 1015.8 in NNE 5.6 mph 5.6 mph 33 % 0.0 in
04:32 1.0 °F -13.5 °F 1015.8 in NNE 3.7 mph 3.7 mph 33 % 0.0 in
04:37 0.8 °F -13.3 °F 1015.8 in SW 3.5 mph 3.5 mph 34 % 0.0 in
04:42 0.4 °F -13.7 °F 1015.8 in WSW 1.9 mph   34 % 0.0 in
04:47 0.5 °F -13.6 °F 1015.8 in NNW 3.7 mph 3.7 mph 34 % 0.0 in
04:52 0.5 °F -13.6 °F 1015.8 in Calm     34 % 0.0 in
04:57 0.7 °F -13.4 °F 1015.8 in NW 3.7 mph 3.7 mph 34 % 0.0 in
05:02 0.8 °F -13.3 °F 1015.8 in NNE 5.6 mph 5.6 mph 34 % 0.0 in
05:07 0.8 °F -13.3 °F 1015.8 in NNE 5.6 mph 5.6 mph 34 % 0.0 in
05:12 0.8 °F -13.3 °F 1015.8 in Calm     34 % 0.0 in
05:17 0.7 °F -13.4 °F 1015.8 in North 3.7 mph 3.7 mph 34 % 0.0 in
05:22 0.6 °F -13.5 °F 1015.8 in SE 3.7 mph 3.7 mph 34 % 0.0 in
05:27 0.6 °F -13.1 °F 1015.8 in NNE 1.9 mph   35 % 0.0 in
05:32 0.6 °F -13.1 °F 1015.8 in NNW 1.9 mph   35 % 0.0 in
05:37 0.5 °F -13.2 °F 1015.8 in NW 1.9 mph 1.9 mph 35 % 0.0 in
05:42 0.6 °F -12.8 °F 1015.8 in NNE 3.2 mph   36 % 0.0 in
05:47 0.8 °F -12.6 °F 1015.8 in WNW 3.7 mph   36 % 0.0 in
05:52 0.9 °F -12.2 °F 1015.8 in NNW 3.9 mph   37 % 0.0 in
05:57 0.8 °F -12.3 °F 1015.8 in WNW 3.7 mph 3.7 mph 37 % 0.0 in
06:02 0.8 °F -12.3 °F 1015.8 in SW 5.6 mph 5.6 mph 37 % 0.0 in
06:07 0.8 °F -11.9 °F 1015.8 in NNW 9.3 mph 9.3 mph 38 % 0.0 in
06:12 0.9 °F -11.5 °F 1015.8 in WNW 3.2 mph 3.2 mph 39 % 0.0 in
06:17 0.8 °F -11.6 °F 1015.8 in ENE 3.7 mph 3.7 mph 39 % 0.0 in
06:22 0.8 °F -11.3 °F 1015.8 in ENE 5.6 mph 5.6 mph 40 % 0.0 in
06:27 0.7 °F -11.4 °F 1015.8 in West 3.2 mph   40 % 0.0 in
06:32 0.8 °F -11.3 °F 1015.8 in NE 4.2 mph 4.2 mph 40 % 0.0 in
06:37 0.8 °F -11.0 °F 1015.8 in NNW 1.9 mph   41 % 0.0 in
06:42 0.8 °F -11.0 °F 1014.8 in North 5.6 mph 5.6 mph 41 % 0.0 in
06:47 0.9 °F -10.9 °F 1014.8 in East 2.3 mph 2.3 mph 41 % 0.0 in
06:52 0.9 °F -10.6 °F 1014.8 in NNE 7.4 mph 7.4 mph 42 % 0.0 in
06:57 1.0 °F -10.5 °F 1015.8 in NNE 5.6 mph 5.6 mph 42 % 0.0 in
06:58 1.0 °F -10.5 °F 1015.8 in NNE 5.6 mph 5.6 mph 42 % 0.0 in
07:03 0.8 °F -10.4 °F 1015.8 in NNW 1.9 mph 1.9 mph 43 % 0.0 in
07:08 0.8 °F -10.4 °F 1015.8 in NNE 3.7 mph 3.7 mph 43 % 0.0 in
07:13 0.9 °F -10.3 °F 1015.8 in NE 7.4 mph 7.4 mph 43 % 0.0 in
07:18 1.0 °F -9.9 °F 1015.8 in NNW 3.7 mph 3.7 mph 44 % 0.0 in
07:23 1.0 °F -9.9 °F 1015.8 in WNW 5.6 mph 5.6 mph 44 % 0.0 in
07:28 1.1 °F -9.8 °F 1016.8 in SSW 3.7 mph 3.7 mph 44 % 0.0 in
07:33 1.1 °F -9.6 °F 1016.8 in NNW 1.9 mph   45 % 0.0 in
07:38 1.0 °F -9.6 °F 1016.8 in WNW 3.5 mph 3.5 mph 45 % 0.0 in
07:43 0.9 °F -9.7 °F 1015.8 in West 3.7 mph 3.7 mph 45 % 0.0 in
07:48 0.9 °F -9.7 °F 1015.8 in NE 3.7 mph   45 % 0.0 in
07:53 0.8 °F -9.6 °F 1015.8 in NE 4.2 mph 4.2 mph 46 % 0.0 in
07:58 0.8 °F -9.6 °F 1016.8 in NNE 5.6 mph 5.6 mph 46 % 0.0 in
08:03 0.8 °F -9.6 °F 1016.8 in WNW 3.7 mph 3.7 mph 46 % 0.0 in
08:08 0.8 °F -9.3 °F 1016.8 in ENE 1.9 mph 1.9 mph 47 % 0.0 in
08:13 1.1 °F -9.0 °F 1016.8 in NNE 3.9 mph 3.9 mph 47 % 0.0 in
08:18 1.1 °F -9.3 °F 1016.8 in SW 3.7 mph 3.7 mph 46 % 0.0 in
08:23 1.0 °F -9.3 °F 1016.8 in WSW 3.7 mph 3.7 mph 46 % 0.0 in
08:28 1.3 °F -8.8 °F 1015.8 in North 3.7 mph 3.7 mph 47 % 0.0 in
08:33 2.0 °F -7.9 °F 1015.8 in NNE 1.9 mph 1.9 mph 48 % 0.0 in
08:38 2.6 °F -7.3 °F 1015.8 in ESE 3.7 mph 3.7 mph 48 % 0.0 in
08:43 2.5 °F -7.4 °F 1016.8 in East 3.9 mph 3.9 mph 48 % 0.0 in
08:48 2.3 °F -7.6 °F 1016.8 in WSW 1.9 mph 1.9 mph 48 % 0.0 in
08:53 2.4 °F -7.5 °F 1016.8 in Calm     48 % 0.0 in
08:58 2.4 °F -7.5 °F 1016.8 in Calm     48 % 0.0 in
09:03 2.4 °F -7.5 °F 1016.8 in Calm     48 % 0.0 in
09:08 2.3 °F -7.6 °F 1016.8 in West 3.7 mph 3.7 mph 48 % 0.0 in
09:13 2.2 °F -7.4 °F 1016.8 in Calm     49 % 0.0 in
09:18 2.4 °F -7.2 °F 1016.8 in Calm     49 % 0.0 in
09:23 2.9 °F -6.5 °F 1016.8 in ENE 3.7 mph   50 % 0.0 in
09:28 3.2 °F -6.5 °F 1016.8 in Calm     49 % 0.0 in
09:33 3.6 °F -6.1 °F 1016.8 in NE 3.7 mph 3.7 mph 49 % 0.0 in
09:38 3.8 °F -5.9 °F 1016.8 in NE 1.9 mph 1.9 mph 49 % 0.0 in
09:43 3.7 °F -6.1 °F 1017.8 in NNE 3.9 mph 3.9 mph 49 % 0.0 in
09:48 3.6 °F -6.1 °F 1017.8 in NE 7.4 mph 7.4 mph 49 % 0.0 in
09:53 3.6 °F -6.1 °F 1017.8 in NNE 4.7 mph 4.7 mph 49 % 0.0 in
09:58 3.5 °F -6.2 °F 1016.8 in NNE 9.3 mph 9.3 mph 49 % 0.0 in
10:03 3.5 °F -6.2 °F 1016.8 in NNE 3.2 mph   49 % 0.0 in
10:08 3.6 °F -6.1 °F 1016.8 in NW 3.7 mph 3.7 mph 49 % 0.0 in
10:13 4.1 °F -5.7 °F 1016.8 in NNW 4.2 mph 4.2 mph 49 % 0.0 in
10:18 4.5 °F -5.3 °F 1016.8 in NW 5.6 mph 5.6 mph 49 % 0.0 in
10:23 5.1 °F -4.8 °F 1016.8 in ENE 2.6 mph 2.6 mph 49 % 0.0 in
10:28 5.2 °F -4.7 °F 1017.8 in WNW 7.4 mph 7.4 mph 49 % 0.0 in
10:33 5.3 °F -4.6 °F 1017.8 in ENE 3.7 mph 3.7 mph 49 % 0.0 in
10:43 5.6 °F -4.6 °F 1017.8 in NE 7.4 mph 7.4 mph 48 % 0.0 in
10:48 5.7 °F -4.5 °F 1017.8 in NNE 5.6 mph 5.6 mph 48 % 0.0 in
10:53 6.1 °F -3.8 °F 1017.8 in NNE 4.2 mph 4.2 mph 49 % 0.0 in
10:58 6.1 °F -4.1 °F 1017.8 in East 7.4 mph 7.4 mph 48 % 0.0 in
11:03 6.3 °F -3.9 °F 1017.8 in NNE 5.6 mph 5.6 mph 48 % 0.0 in
11:08 6.4 °F -3.8 °F 1017.8 in NE 7.4 mph 7.4 mph 48 % 0.0 in
11:13 6.5 °F -3.7 °F 1017.8 in NNE 6.9 mph 6.9 mph 48 % 0.0 in
11:18 6.6 °F -3.7 °F 1017.8 in ENE 5.6 mph 5.6 mph 48 % 0.0 in
11:23 6.9 °F -3.4 °F 1017.8 in NNE 7.6 mph 7.6 mph 48 % 0.0 in
11:28 7.1 °F -3.2 °F 1016.8 in NNE 3.7 mph 3.7 mph 48 % 0.0 in
11:33 7.1 °F -3.2 °F 1016.8 in NE 5.6 mph 5.6 mph 48 % 0.0 in
11:38 7.2 °F -3.4 °F 1016.8 in East 5.6 mph 5.6 mph 47 % 0.0 in
11:43 7.6 °F -2.7 °F 1016.8 in NE 5.8 mph 5.8 mph 48 % 0.0 in
11:48 7.8 °F -2.8 °F 1016.8 in ENE 5.6 mph 5.6 mph 47 % 0.0 in
11:53 8.1 °F -2.6 °F 1016.8 in NNE 4.2 mph 4.2 mph 47 % 0.0 in
11:58 8.2 °F -2.4 °F 1016.8 in ESE 5.6 mph 5.6 mph 47 % 0.0 in
12:03 8.3 °F -2.4 °F 1016.8 in NNE 6.1 mph 6.1 mph 47 % 0.0 in
12:08 8.2 °F -2.4 °F 1016.8 in NE 5.6 mph 5.6 mph 47 % 0.0 in
12:13 8.5 °F -2.2 °F 1015.8 in NNE 5.6 mph 5.6 mph 47 % 0.0 in
12:18 8.7 °F -2.0 °F 1015.8 in NNE 5.6 mph 5.6 mph 47 % 0.0 in
12:23 9.1 °F -1.6 °F 1015.8 in East 3.7 mph 3.7 mph 47 % 0.0 in
12:28 9.3 °F -1.4 °F 1015.8 in ENE 6.1 mph 6.1 mph 47 % 0.0 in
12:33 9.5 °F -1.3 °F 1015.8 in ENE 4.2 mph 4.2 mph 47 % 0.0 in
12:38 9.4 °F -1.3 °F 1015.8 in East 7.4 mph 7.4 mph 47 % 0.0 in
12:43 9.7 °F -1.1 °F 1015.8 in NE 7.4 mph 7.4 mph 47 % 0.0 in
12:48 10.0 °F -0.8 °F 1015.8 in ENE 5.6 mph 5.6 mph 47 % 0.0 in
12:53 10.3 °F -0.6 °F 1015.8 in ENE 5.6 mph 5.6 mph 47 % 0.0 in
12:58 10.4 °F -0.4 °F 1015.8 in NE 7.4 mph 7.4 mph 47 % 0.0 in
13:03 10.9 °F 0.0 °F 1015.8 in NNE 6.1 mph 6.1 mph 47 % 0.0 in
13:08 10.6 °F -0.3 °F 1015.8 in NE 7.4 mph 7.4 mph 47 % 0.0 in
13:13 10.9 °F 0.0 °F 1015.8 in ESE 9.3 mph 9.3 mph 47 % 0.0 in
13:18 10.9 °F 0.0 °F 1015.8 in ENE 7.4 mph 7.4 mph 47 % 0.0 in
13:23 11.2 °F 0.3 °F 1015.8 in WSW 4.2 mph 4.2 mph 47 % 0.0 in
13:28 11.4 °F 0.5 °F 1014.8 in NNE 1.9 mph 1.9 mph 47 % 0.0 in
13:33 11.5 °F 0.6 °F 1014.8 in East 3.7 mph 3.7 mph 47 % 0.0 in
13:38 12.3 °F 1.6 °F 1014.8 in SSW 5.6 mph 5.6 mph 48 % 0.0 in
13:43 12.5 °F 1.8 °F 1014.8 in WSW 7.4 mph 7.4 mph 48 % 0.0 in
13:48 12.7 °F 1.9 °F 1014.8 in SSW 5.6 mph 5.6 mph 48 % 0.0 in
13:53 12.9 °F 2.2 °F 1014.8 in SW 1.9 mph 1.9 mph 48 % 0.0 in
13:58 13.3 °F 2.8 °F 1014.8 in SSW 7.9 mph 7.9 mph 49 % 0.0 in
14:03 13.7 °F 3.2 °F 1014.8 in WNW 11.1 mph 11.1 mph 49 % 0.0 in
14:08 13.7 °F 3.2 °F 1014.8 in WSW 6.9 mph 6.9 mph 49 % 0.0 in
14:13 13.7 °F 3.4 °F 1014.8 in WSW 14.8 mph 14.8 mph 50 % 0.0 in
14:18 13.6 °F 3.4 °F 1014.8 in West 5.8 mph 5.8 mph 50 % 0.0 in
14:23 13.3 °F 3.1 °F 1014.8 in WNW 5.6 mph 5.6 mph 50 % 0.0 in
14:28 13.3 °F 3.1 °F 1013.8 in NW 5.6 mph 5.6 mph 50 % 0.0 in
14:33 13.4 °F 3.2 °F 1013.8 in WNW 7.4 mph 7.4 mph 50 % 0.0 in
14:38 13.5 °F 3.3 °F 1013.8 in WNW 5.8 mph 5.8 mph 50 % 0.0 in
14:43 13.6 °F 3.4 °F 1013.8 in WSW 3.7 mph 3.7 mph 50 % 0.0 in
14:48 13.7 °F 3.4 °F 1013.8 in NW 11.4 mph 11.4 mph 50 % 0.0 in
14:53 13.7 °F 3.7 °F 1013.8 in West 9.3 mph 9.3 mph 51 % 0.0 in
14:58 14.0 °F 4.0 °F 1013.8 in West 7.4 mph 7.4 mph 51 % 0.0 in
15:03 14.1 °F 4.1 °F 1013.8 in North 5.6 mph 5.6 mph 51 % 0.0 in
15:08 14.1 °F 4.1 °F 1013.8 in SW 5.6 mph 5.8 mph 51 % 0.0 in
15:13 14.3 °F 4.3 °F 1013.8 in NW 9.3 mph 9.3 mph 51 % 0.0 in
15:18 14.2 °F 4.2 °F 1013.8 in WNW 9.3 mph 9.3 mph 51 % 0.0 in
15:23 14.4 °F 4.4 °F 1013.8 in WNW 5.6 mph 5.6 mph 51 % 0.0 in
15:28 14.3 °F 4.3 °F 1013.8 in WSW 9.7 mph 9.7 mph 51 % 0.0 in
15:33 14.3 °F 4.3 °F 1013.8 in West 5.6 mph 5.6 mph 51 % 0.0 in
15:38 14.3 °F 4.3 °F 1013.8 in West 9.3 mph 9.3 mph 51 % 0.0 in
15:43 14.4 °F 4.4 °F 1013.8 in West 9.3 mph 9.5 mph 51 % 0.0 in
15:48 14.6 °F 4.6 °F 1013.8 in SW 5.6 mph 5.6 mph 51 % 0.0 in
15:53 14.7 °F 4.9 °F 1013.8 in WNW 5.6 mph 5.6 mph 52 % 0.0 in
15:58 14.5 °F 4.8 °F 1013.8 in SW 9.3 mph 9.3 mph 52 % 0.0 in
16:03 14.3 °F 4.6 °F 1013.8 in West 9.3 mph 9.3 mph 52 % 0.0 in
16:08 14.2 °F 4.5 °F 1013.8 in SW 7.4 mph 7.4 mph 52 % 0.0 in
16:13 14.3 °F 4.6 °F 1012.8 in WSW 9.5 mph 9.5 mph 52 % 0.0 in
16:18 14.2 °F 4.5 °F 1012.8 in West 5.6 mph 5.6 mph 52 % 0.0 in
16:23 14.2 °F 4.5 °F 1012.8 in WNW 5.6 mph 5.6 mph 52 % 0.0 in
16:28 14.2 °F 4.5 °F 1013.8 in WSW 9.3 mph 9.3 mph 52 % 0.0 in
16:33 14.2 °F 4.5 °F 1013.8 in NNE 5.6 mph 5.6 mph 52 % 0.0 in
16:38 14.1 °F 4.7 °F 1013.8 in WNW 9.3 mph 9.3 mph 53 % 0.0 in
16:43 14.2 °F 4.7 °F 1013.8 in WNW 1.9 mph   53 % 0.0 in
16:48 14.5 °F 5.0 °F 1013.8 in NW 5.6 mph 5.6 mph 53 % 0.0 in
16:53 14.5 °F 5.0 °F 1013.8 in WSW 3.7 mph 3.7 mph 53 % 0.0 in
16:58 14.7 °F 5.2 °F 1013.8 in SW 3.7 mph 3.7 mph 53 % 0.0 in
17:03 14.9 °F 5.4 °F 1013.8 in NNW 2.6 mph 2.6 mph 53 % 0.0 in
17:08 14.9 °F 5.4 °F 1013.8 in WSW 3.7 mph 3.7 mph 53 % 0.0 in
17:13 14.7 °F 5.2 °F 1012.8 in WSW 9.3 mph 9.3 mph 53 % 0.0 in
17:18 14.5 °F 5.0 °F 1012.8 in NNE 3.7 mph 3.7 mph 53 % 0.0 in
17:23 14.4 °F 4.9 °F 1012.8 in WSW 3.7 mph 3.7 mph 53 % 0.0 in
17:28 14.3 °F 4.8 °F 1012.8 in NW 3.7 mph 3.7 mph 53 % 0.0 in
17:33 14.2 °F 5.0 °F 1012.8 in SW 5.8 mph 5.8 mph 54 % 0.0 in
17:38 14.3 °F 5.1 °F 1012.8 in WSW 2.3 mph 2.6 mph 54 % 0.0 in
17:43 14.2 °F 5.0 °F 1012.8 in SSW 3.7 mph 3.7 mph 54 % 0.0 in
17:48 14.1 °F 4.9 °F 1012.8 in West 3.7 mph 3.7 mph 54 % 0.0 in
17:53 13.9 °F 4.7 °F 1012.8 in West 5.6 mph 5.6 mph 54 % 0.0 in
17:58 13.8 °F 4.7 °F 1012.8 in West 5.6 mph 5.6 mph 54 % 0.0 in
18:03 13.7 °F 4.6 °F 1012.8 in WNW 9.3 mph 9.3 mph 54 % 0.0 in
18:08 13.6 °F 4.7 °F 1012.8 in West 7.6 mph 7.6 mph 55 % 0.0 in
18:13 13.6 °F 4.7 °F 1012.8 in West 7.4 mph 7.4 mph 55 % 0.0 in
18:18 13.6 °F 4.7 °F 1012.8 in WNW 7.4 mph 7.4 mph 55 % 0.0 in
18:23 13.5 °F 4.6 °F 1012.8 in West 7.4 mph 7.4 mph 55 % 0.0 in
18:28 13.4 °F 4.8 °F 1012.8 in West 5.6 mph 5.6 mph 56 % 0.0 in
18:33 13.3 °F 4.7 °F 1012.8 in WSW 5.6 mph 5.6 mph 56 % 0.0 in
18:38 13.2 °F 4.6 °F 1012.8 in WSW 5.6 mph 5.6 mph 56 % 0.0 in
18:43 13.2 °F 4.6 °F 1013.8 in West 4.7 mph 4.7 mph 56 % 0.0 in
18:48 13.1 °F 4.5 °F 1013.8 in WSW 5.6 mph 5.6 mph 56 % 0.0 in
18:53 12.8 °F 4.5 °F 1013.8 in WSW 5.6 mph 5.6 mph 57 % 0.0 in
18:58 12.5 °F 4.2 °F 1013.8 in WNW 7.4 mph 7.4 mph 57 % 0.0 in
19:03 12.3 °F 4.3 °F 1013.8 in WNW 5.6 mph 5.6 mph 58 % 0.0 in
19:08 12.2 °F 4.2 °F 1013.8 in West 3.7 mph 3.7 mph 58 % 0.0 in
19:13 11.9 °F 4.1 °F 1013.8 in WSW 3.9 mph 3.9 mph 59 % 0.0 in
19:18 11.7 °F 3.9 °F 1013.8 in WSW 6.4 mph 6.4 mph 59 % 0.0 in
19:23 11.6 °F 4.1 °F 1013.8 in SW 5.6 mph 5.6 mph 60 % 0.0 in
19:28 11.5 °F 4.2 °F 1013.8 in WSW 5.3 mph 5.3 mph 61 % 0.0 in
19:33 11.3 °F 4.1 °F 1013.8 in WSW 3.9 mph 3.9 mph 61 % 0.0 in
19:38 11.2 °F 3.9 °F 1013.8 in West 5.6 mph 5.6 mph 61 % 0.0 in
19:43 11.1 °F 4.1 °F 1013.8 in WSW 5.6 mph 5.6 mph 62 % 0.0 in
19:48 11.0 °F 4.0 °F 1013.8 in West 6.1 mph 6.1 mph 62 % 0.0 in
19:53 11.0 °F 4.2 °F 1013.8 in West 4.2 mph 4.2 mph 63 % 0.0 in
19:58 10.9 °F 4.1 °F 1013.8 in WSW 5.6 mph 5.6 mph 63 % 0.0 in
20:03 10.7 °F 3.9 °F 1013.8 in WSW 3.7 mph 3.7 mph 63 % 0.0 in
20:08 10.6 °F 4.1 °F 1013.8 in SW 3.7 mph 3.7 mph 64 % 0.0 in
20:13 10.6 °F 4.1 °F 1013.8 in SW 3.7 mph 3.7 mph 64 % 0.0 in
20:18 10.6 °F 4.1 °F 1013.8 in SW 5.6 mph 5.6 mph 64 % 0.0 in
20:23 10.6 °F 4.1 °F 1013.8 in SSW 5.0 mph 5.0 mph 64 % 0.0 in
20:28 10.6 °F 4.1 °F 1012.8 in WSW 5.6 mph 5.6 mph 64 % 0.0 in
20:33 10.6 °F 4.1 °F 1012.8 in SSW 5.8 mph 5.8 mph 64 % 0.0 in
20:38 10.6 °F 4.1 °F 1012.8 in WSW 9.3 mph 9.3 mph 64 % 0.0 in
20:43 10.8 °F 4.3 °F 1012.8 in WSW 7.4 mph 7.4 mph 64 % 0.0 in
20:48 11.0 °F 4.4 °F 1012.8 in WSW 7.4 mph 7.4 mph 64 % 0.0 in
20:53 11.0 °F 4.4 °F 1012.8 in SW 5.6 mph 5.6 mph 64 % 0.0 in
20:58 11.0 °F 4.4 °F 1012.8 in WSW 5.6 mph 5.6 mph 64 % 0.0 in
21:03 11.0 °F 4.4 °F 1012.8 in WSW 3.7 mph 3.7 mph 64 % 0.0 in
21:08 11.0 °F 4.4 °F 1012.8 in West 3.7 mph 3.7 mph 64 % 0.0 in
21:13 11.2 °F 4.6 °F 1012.8 in West 3.7 mph 3.7 mph 64 % 0.0 in
21:18 11.3 °F 4.5 °F 1012.8 in West 7.4 mph 7.4 mph 63 % 0.0 in
21:23 11.8 °F 5.0 °F 1012.8 in WSW 7.4 mph 7.4 mph 63 % 0.0 in
21:28 12.1 °F 5.3 °F 1011.7 in WSW 5.6 mph 5.6 mph 63 % 0.0 in
21:33 12.1 °F 5.3 °F 1011.7 in SW 5.6 mph 5.6 mph 63 % 0.0 in
21:38 12.1 °F 5.3 °F 1011.7 in NW 5.6 mph 5.6 mph 63 % 0.0 in
21:43 12.2 °F 5.3 °F 1011.7 in WNW 1.9 mph   63 % 0.0 in
21:48 12.2 °F 5.1 °F 1011.7 in WSW 5.6 mph 5.6 mph 62 % 0.0 in
21:53 12.2 °F 5.1 °F 1011.7 in WSW 5.6 mph 5.6 mph 62 % 0.0 in
21:58 12.3 °F 5.2 °F 1012.8 in West 7.4 mph 7.4 mph 62 % 0.0 in
22:03 12.3 °F 5.2 °F 1012.8 in WNW 6.1 mph 6.1 mph 62 % 0.0 in
22:08 12.3 °F 5.0 °F 1012.8 in WNW 5.6 mph 5.6 mph 61 % 0.0 in
22:13 12.3 °F 5.0 °F 1012.8 in WSW 3.7 mph 3.7 mph 61 % 0.0 in
22:18 12.3 °F 5.0 °F 1012.8 in WSW 3.9 mph 3.9 mph 61 % 0.0 in
22:23 12.1 °F 4.8 °F 1012.8 in NNE 3.2 mph 3.2 mph 61 % 0.0 in
22:28 11.7 °F 4.4 °F 1011.7 in ENE 3.7 mph 3.9 mph 61 % 0.0 in
22:33 11.6 °F 4.3 °F 1011.7 in NNE 1.9 mph   61 % 0.0 in
22:38 11.5 °F 4.2 °F 1011.7 in NNE 5.6 mph 5.6 mph 61 % 0.0 in
22:43 11.3 °F 4.1 °F 1011.7 in ENE 1.9 mph   61 % 0.0 in
22:48 11.3 °F 4.1 °F 1011.7 in NNW 1.9 mph   61 % 0.0 in
22:53 11.2 °F 3.9 °F 1011.7 in NW 1.9 mph   61 % 0.0 in
22:58 11.1 °F 3.8 °F 1011.7 in NNE 3.7 mph 3.7 mph 61 % 0.0 in
23:03 11.1 °F 3.8 °F 1011.7 in NNE 2.3 mph   61 % 0.0 in
23:08 11.0 °F 3.8 °F 1011.7 in West 1.9 mph   61 % 0.0 in
23:13 11.0 °F 3.8 °F 1011.7 in Calm     61 % 0.0 in
23:18 10.9 °F 3.7 °F 1011.7 in WSW 3.7 mph 3.7 mph 61 % 0.0 in
23:23 10.7 °F 3.5 °F 1011.7 in WSW 1.9 mph   61 % 0.0 in
23:28 10.8 °F 3.6 °F 1012.8 in ENE 1.9 mph   61 % 0.0 in
23:33 10.7 °F 3.5 °F 1012.8 in ENE 1.9 mph   61 % 0.0 in
23:38 10.9 °F 3.9 °F 1012.8 in ENE 5.6 mph 5.6 mph 62 % 0.0 in
23:43 10.7 °F 3.7 °F 1012.8 in NE 3.7 mph 3.7 mph 62 % 0.0 in
23:48 10.6 °F 3.4 °F 1012.8 in WNW 3.7 mph 3.7 mph 61 % 0.0 in
23:53 10.5 °F 3.5 °F 1012.8 in NW 2.6 mph 2.6 mph 62 % 0.0 in
23:58 10.4 °F 3.4 °F 1012.8 in WNW 3.7 mph 3.7 mph 62 % 0.0 in
Meteo Sesrovires
Elogis d' Weather Underground - 1.75 mb

Guio original per  Jim McMurry - jmcmurry@mwt.net Adaptat per a la plantilla per  Wim van der Kuil - Leuven-Template.eu

Trobareu la nostra informacio del temps tambe a:

Weather Underground

AWEKAS